Clifden, Ireland
Current Conditions -  °F | °C
As of 7:30 PM on Wednesday 26 Nov 2014 (Local Time) from EIKN Reporting Station
Moderate Fog Moderate Fog  
Wind Chill: 26°   Ceiling: Unl
Heat Index: 34°   Visibility: 0.25mi
Dew Point: 32°   Wind: 9mph
Humidity: 93%   Direction: 130°SE
Pressure: 29.74"   Gusts: NA
Location:  53.49°N, 10.03°W
Report Text: EIKN 261930Z 13008KT 0400 R27/0600 FG SCT002 SCT028 01/00 Q1007 NOSIG
Loading
Personal Weather Stations






























Interactive Weather Map New forecast layout! Learn more

10-Day Weather Forecast

Advertisements
Track Severe Weather on mobile